sensor_id;sensor_type;location;lat;lon;timestamp;P1;durP1;ratioP1;P2;durP2;ratioP2
26562;SDS011;14217;50.986;5.826;2023-08-06T00:01:58;0.93;;;0.20;;
26562;SDS011;14217;50.986;5.826;2023-08-06T00:07:00;0.20;;;0.20;;
26562;SDS011;14217;50.986;5.826;2023-08-06T00:12:02;0.30;;;0.30;;
26562;SDS011;14217;50.986;5.826;2023-08-06T00:17:04;0.68;;;0.30;;
26562;SDS011;14217;50.986;5.826;2023-08-06T00:22:06;0.28;;;0.28;;
26562;SDS011;14217;50.986;5.826;2023-08-06T00:27:08;0.20;;;0.20;;
26562;SDS011;14217;50.986;5.826;2023-08-06T00:32:10;0.70;;;0.38;;
26562;SDS011;14217;50.986;5.826;2023-08-06T00:37:12;0.40;;;0.40;;
26562;SDS011;14217;50.986;5.826;2023-08-06T00:42:14;0.40;;;0.30;;
26562;SDS011;14217;50.986;5.826;2023-08-06T00:47:18;0.20;;;0.20;;
26562;SDS011;14217;50.986;5.826;2023-08-06T00:52:21;0.20;;;0.20;;
26562;SDS011;14217;50.986;5.826;2023-08-06T00:57:23;0.30;;;0.30;;
26562;SDS011;14217;50.986;5.826;2023-08-06T01:02:27;0.22;;;0.22;;
26562;SDS011;14217;50.986;5.826;2023-08-06T01:13:08;0.70;;;0.30;;
26562;SDS011;14217;50.986;5.826;2023-08-06T01:18:16;0.28;;;0.20;;
26562;SDS011;14217;50.986;5.826;2023-08-06T01:23:18;0.75;;;0.32;;
26562;SDS011;14217;50.986;5.826;2023-08-06T01:29:05;0.10;;;0.10;;
26562;SDS011;14217;50.986;5.826;2023-08-06T01:33:53;0.25;;;0.20;;
26562;SDS011;14217;50.986;5.826;2023-08-06T01:38:57;0.28;;;0.28;;
26562;SDS011;14217;50.986;5.826;2023-08-06T01:43:59;0.45;;;0.30;;
26562;SDS011;14217;50.986;5.826;2023-08-06T01:49:01;0.20;;;0.20;;
26562;SDS011;14217;50.986;5.826;2023-08-06T01:54:03;0.30;;;0.30;;
26562;SDS011;14217;50.986;5.826;2023-08-06T01:59:05;0.20;;;0.10;;
26562;SDS011;14217;50.986;5.826;2023-08-06T02:04:07;0.20;;;0.10;;
26562;SDS011;14217;50.986;5.826;2023-08-06T02:09:09;0.65;;;0.32;;
26562;SDS011;14217;50.986;5.826;2023-08-06T02:14:11;0.38;;;0.30;;
26562;SDS011;14217;50.986;5.826;2023-08-06T02:19:14;0.10;;;0.10;;
26562;SDS011;14217;50.986;5.826;2023-08-06T02:24:15;0.30;;;0.25;;
26562;SDS011;14217;50.986;5.826;2023-08-06T02:29:17;0.10;;;0.10;;
26562;SDS011;14217;50.986;5.826;2023-08-06T02:34:19;0.40;;;0.30;;
26562;SDS011;14217;50.986;5.826;2023-08-06T02:39:21;0.30;;;0.30;;
26562;SDS011;14217;50.986;5.826;2023-08-06T02:44:26;0.30;;;0.22;;
26562;SDS011;14217;50.986;5.826;2023-08-06T02:49:29;0.20;;;0.20;;
26562;SDS011;14217;50.986;5.826;2023-08-06T02:54:30;0.30;;;0.30;;
26562;SDS011;14217;50.986;5.826;2023-08-06T02:59:32;0.82;;;0.10;;
26562;SDS011;14217;50.986;5.826;2023-08-06T03:04:34;0.45;;;0.20;;
26562;SDS011;14217;50.986;5.826;2023-08-06T03:09:36;0.17;;;0.17;;
26562;SDS011;14217;50.986;5.826;2023-08-06T03:14:38;0.10;;;0.10;;
26562;SDS011;14217;50.986;5.826;2023-08-06T03:19:40;1.05;;;0.10;;
26562;SDS011;14217;50.986;5.826;2023-08-06T03:24:42;0.43;;;0.20;;
26562;SDS011;14217;50.986;5.826;2023-08-06T03:29:44;0.20;;;0.20;;
26562;SDS011;14217;50.986;5.826;2023-08-06T03:34:46;0.10;;;0.10;;
26562;SDS011;14217;50.986;5.826;2023-08-06T03:39:48;0.15;;;0.15;;
26562;SDS011;14217;50.986;5.826;2023-08-06T03:44:50;0.22;;;0.20;;
26562;SDS011;14217;50.986;5.826;2023-08-06T03:49:52;0.10;;;0.10;;
26562;SDS011;14217;50.986;5.826;2023-08-06T03:54:54;0.20;;;0.20;;
26562;SDS011;14217;50.986;5.826;2023-08-06T03:59:56;0.35;;;0.15;;
26562;SDS011;14217;50.986;5.826;2023-08-06T04:04:58;0.10;;;0.10;;
26562;SDS011;14217;50.986;5.826;2023-08-06T04:10:02;0.10;;;0.10;;
26562;SDS011;14217;50.986;5.826;2023-08-06T04:15:05;0.50;;;0.20;;
26562;SDS011;14217;50.986;5.826;2023-08-06T04:20:07;8.68;;;0.40;;
26562;SDS011;14217;50.986;5.826;2023-08-06T04:25:10;0.20;;;0.10;;
26562;SDS011;14217;50.986;5.826;2023-08-06T04:30:12;0.10;;;0.10;;
26562;SDS011;14217;50.986;5.826;2023-08-06T04:35:14;0.10;;;0.10;;
26562;SDS011;14217;50.986;5.826;2023-08-06T04:40:16;0.55;;;0.10;;
26562;SDS011;14217;50.986;5.826;2023-08-06T04:45:18;0.17;;;0.17;;
26562;SDS011;14217;50.986;5.826;2023-08-06T04:50:20;0.43;;;0.20;;
26562;SDS011;14217;50.986;5.826;2023-08-06T04:55:22;0.35;;;0.28;;
26562;SDS011;14217;50.986;5.826;2023-08-06T05:00:24;0.20;;;0.20;;
26562;SDS011;14217;50.986;5.826;2023-08-06T05:05:26;0.25;;;0.10;;
26562;SDS011;14217;50.986;5.826;2023-08-06T05:10:28;0.10;;;0.10;;
26562;SDS011;14217;50.986;5.826;2023-08-06T05:15:30;0.20;;;0.03;;
26562;SDS011;14217;50.986;5.826;2023-08-06T05:20:35;0.20;;;0.20;;
26562;SDS011;14217;50.986;5.826;2023-08-06T05:25:38;0.10;;;0.10;;
26562;SDS011;14217;50.986;5.826;2023-08-06T05:30:40;0.25;;;0.10;;
26562;SDS011;14217;50.986;5.826;2023-08-06T05:35:42;0.20;;;0.20;;
26562;SDS011;14217;50.986;5.826;2023-08-06T05:40:44;0.10;;;0.10;;
26562;SDS011;14217;50.986;5.826;2023-08-06T05:45:48;0.20;;;0.17;;
26562;SDS011;14217;50.986;5.826;2023-08-06T05:50:51;0.35;;;0.20;;
26562;SDS011;14217;50.986;5.826;2023-08-06T05:55:53;0.10;;;0.10;;
26562;SDS011;14217;50.986;5.826;2023-08-06T06:00:56;0.17;;;0.17;;
26562;SDS011;14217;50.986;5.826;2023-08-06T06:05:58;0.00;;;0.00;;
26562;SDS011;14217;50.986;5.826;2023-08-06T06:11:02;0.20;;;0.20;;
26562;SDS011;14217;50.986;5.826;2023-08-06T06:16:04;0.50;;;0.20;;
26562;SDS011;14217;50.986;5.826;2023-08-06T06:21:06;0.10;;;0.10;;
26562;SDS011;14217;50.986;5.826;2023-08-06T06:26:08;0.68;;;0.10;;
26562;SDS011;14217;50.986;5.826;2023-08-06T06:31:11;0.10;;;0.10;;
26562;SDS011;14217;50.986;5.826;2023-08-06T06:36:13;0.10;;;0.10;;
26562;SDS011;14217;50.986;5.826;2023-08-06T06:41:15;0.20;;;0.20;;
26562;SDS011;14217;50.986;5.826;2023-08-06T06:46:17;0.35;;;0.13;;
26562;SDS011;14217;50.986;5.826;2023-08-06T06:51:19;0.10;;;0.10;;
26562;SDS011;14217;50.986;5.826;2023-08-06T06:56:21;1.17;;;0.10;;
26562;SDS011;14217;50.986;5.826;2023-08-06T07:01:23;0.17;;;0.17;;
26562;SDS011;14217;50.986;5.826;2023-08-06T07:06:25;0.22;;;0.22;;
26562;SDS011;14217;50.986;5.826;2023-08-06T07:11:27;0.25;;;0.22;;
26562;SDS011;14217;50.986;5.826;2023-08-06T07:16:29;1.55;;;0.20;;
26562;SDS011;14217;50.986;5.826;2023-08-06T07:21:31;0.10;;;0.10;;
26562;SDS011;14217;50.986;5.826;2023-08-06T07:26:34;0.10;;;0.10;;
26562;SDS011;14217;50.986;5.826;2023-08-06T07:31:36;0.98;;;0.15;;
26562;SDS011;14217;50.986;5.826;2023-08-06T07:36:38;0.20;;;0.15;;
26562;SDS011;14217;50.986;5.826;2023-08-06T07:41:39;2.10;;;0.25;;
26562;SDS011;14217;50.986;5.826;2023-08-06T07:46:42;0.35;;;0.25;;
26562;SDS011;14217;50.986;5.826;2023-08-06T07:51:44;0.10;;;0.10;;
26562;SDS011;14217;50.986;5.826;2023-08-06T07:56:46;0.10;;;0.10;;
26562;SDS011;14217;50.986;5.826;2023-08-06T08:01:48;0.43;;;0.40;;
26562;SDS011;14217;50.986;5.826;2023-08-06T08:06:50;2.83;;;1.05;;
26562;SDS011;14217;50.986;5.826;2023-08-06T08:11:52;0.15;;;0.10;;
26562;SDS011;14217;50.986;5.826;2023-08-06T08:16:54;1.33;;;0.30;;
26562;SDS011;14217;50.986;5.826;2023-08-06T08:21:56;1.85;;;0.40;;
26562;SDS011;14217;50.986;5.826;2023-08-06T08:26:59;0.85;;;0.30;;
26562;SDS011;14217;50.986;5.826;2023-08-06T08:32:01;0.20;;;0.20;;
26562;SDS011;14217;50.986;5.826;2023-08-06T08:37:03;0.40;;;0.35;;
26562;SDS011;14217;50.986;5.826;2023-08-06T08:42:05;0.82;;;0.30;;
26562;SDS011;14217;50.986;5.826;2023-08-06T08:47:09;0.10;;;0.10;;
26562;SDS011;14217;50.986;5.826;2023-08-06T08:52:12;0.30;;;0.30;;
26562;SDS011;14217;50.986;5.826;2023-08-06T08:57:16;0.40;;;0.15;;
26562;SDS011;14217;50.986;5.826;2023-08-06T09:02:18;1.17;;;0.35;;
26562;SDS011;14217;50.986;5.826;2023-08-06T09:07:23;0.70;;;0.22;;
26562;SDS011;14217;50.986;5.826;2023-08-06T09:12:25;0.30;;;0.30;;
26562;SDS011;14217;50.986;5.826;2023-08-06T09:17:28;1.20;;;0.35;;
26562;SDS011;14217;50.986;5.826;2023-08-06T09:22:34;1.45;;;0.50;;
26562;SDS011;14217;50.986;5.826;2023-08-06T09:27:37;1.30;;;0.35;;
26562;SDS011;14217;50.986;5.826;2023-08-06T09:32:45;1.25;;;0.30;;
26562;SDS011;14217;50.986;5.826;2023-08-06T09:37:54;0.57;;;0.30;;
26562;SDS011;14217;50.986;5.826;2023-08-06T09:42:56;1.45;;;0.60;;
26562;SDS011;14217;50.986;5.826;2023-08-06T09:48:00;5.30;;;0.40;;
26562;SDS011;14217;50.986;5.826;2023-08-06T09:53:05;0.93;;;0.50;;
26562;SDS011;14217;50.986;5.826;2023-08-06T09:58:07;1.55;;;0.40;;
26562;SDS011;14217;50.986;5.826;2023-08-06T10:03:10;0.95;;;0.30;;
26562;SDS011;14217;50.986;5.826;2023-08-06T10:08:15;0.30;;;0.30;;
26562;SDS011;14217;50.986;5.826;2023-08-06T10:13:17;0.63;;;0.50;;
26562;SDS011;14217;50.986;5.826;2023-08-06T10:18:23;0.75;;;0.17;;
26562;SDS011;14217;50.986;5.826;2023-08-06T10:23:33;0.45;;;0.30;;
26562;SDS011;14217;50.986;5.826;2023-08-06T10:28:36;2.50;;;0.57;;
26562;SDS011;14217;50.986;5.826;2023-08-06T10:33:42;0.52;;;0.25;;
26562;SDS011;14217;50.986;5.826;2023-08-06T10:38:47;0.65;;;0.40;;
26562;SDS011;14217;50.986;5.826;2023-08-06T10:43:50;0.63;;;0.28;;
26562;SDS011;14217;50.986;5.826;2023-08-06T10:48:52;1.15;;;0.38;;
26562;SDS011;14217;50.986;5.826;2023-08-06T10:53:54;0.63;;;0.28;;
26562;SDS011;14217;50.986;5.826;2023-08-06T10:58:57;4.28;;;0.50;;
26562;SDS011;14217;50.986;5.826;2023-08-06T11:04:01;1.17;;;0.40;;
26562;SDS011;14217;50.986;5.826;2023-08-06T11:09:04;4.45;;;0.60;;
26562;SDS011;14217;50.986;5.826;2023-08-06T11:14:06;1.52;;;0.60;;
26562;SDS011;14217;50.986;5.826;2023-08-06T11:19:07;1.13;;;0.30;;
26562;SDS011;14217;50.986;5.826;2023-08-06T11:24:10;0.75;;;0.35;;
26562;SDS011;14217;50.986;5.826;2023-08-06T11:29:12;2.75;;;0.75;;
26562;SDS011;14217;50.986;5.826;2023-08-06T11:34:16;1.70;;;0.50;;
26562;SDS011;14217;50.986;5.826;2023-08-06T11:39:18;0.52;;;0.38;;
26562;SDS011;14217;50.986;5.826;2023-08-06T11:44:21;1.90;;;0.70;;
26562;SDS011;14217;50.986;5.826;2023-08-06T11:54:47;0.82;;;0.30;;
26562;SDS011;14217;50.986;5.826;2023-08-06T11:59:49;0.88;;;0.32;;
26562;SDS011;14217;50.986;5.826;2023-08-06T12:05:04;2.20;;;0.30;;
26562;SDS011;14217;50.986;5.826;2023-08-06T12:10:07;1.13;;;0.30;;
26562;SDS011;14217;50.986;5.826;2023-08-06T12:15:10;0.60;;;0.20;;
26562;SDS011;14217;50.986;5.826;2023-08-06T12:20:12;0.10;;;0.10;;
26562;SDS011;14217;50.986;5.826;2023-08-06T12:25:14;0.98;;;0.30;;
26562;SDS011;14217;50.986;5.826;2023-08-06T12:30:16;0.90;;;0.35;;
26562;SDS011;14217;50.986;5.826;2023-08-06T12:35:18;0.20;;;0.20;;
26562;SDS011;14217;50.986;5.826;2023-08-06T12:40:21;0.55;;;0.20;;
26562;SDS011;14217;50.986;5.826;2023-08-06T12:45:38;0.30;;;0.28;;
26562;SDS011;14217;50.986;5.826;2023-08-06T12:50:40;0.57;;;0.17;;
26562;SDS011;14217;50.986;5.826;2023-08-06T12:55:42;0.63;;;0.10;;
26562;SDS011;14217;50.986;5.826;2023-08-06T13:00:44;1.75;;;0.45;;
26562;SDS011;14217;50.986;5.826;2023-08-06T13:05:46;0.30;;;0.30;;
26562;SDS011;14217;50.986;5.826;2023-08-06T13:10:47;0.52;;;0.32;;
26562;SDS011;14217;50.986;5.826;2023-08-06T13:15:50;0.20;;;0.10;;
26562;SDS011;14217;50.986;5.826;2023-08-06T13:20:53;0.85;;;0.25;;
26562;SDS011;14217;50.986;5.826;2023-08-06T13:25:55;0.60;;;0.30;;
26562;SDS011;14217;50.986;5.826;2023-08-06T13:30:58;0.80;;;0.40;;
26562;SDS011;14217;50.986;5.826;2023-08-06T13:36:00;0.28;;;0.20;;
26562;SDS011;14217;50.986;5.826;2023-08-06T13:41:02;0.20;;;0.20;;
26562;SDS011;14217;50.986;5.826;2023-08-06T13:46:03;1.48;;;0.40;;
26562;SDS011;14217;50.986;5.826;2023-08-06T13:51:05;1.05;;;0.28;;
26562;SDS011;14217;50.986;5.826;2023-08-06T13:56:08;3.42;;;0.93;;
26562;SDS011;14217;50.986;5.826;2023-08-06T14:01:13;2.13;;;0.73;;
26562;SDS011;14217;50.986;5.826;2023-08-06T14:06:20;3.67;;;0.70;;
26562;SDS011;14217;50.986;5.826;2023-08-06T14:11:22;6.15;;;1.33;;
26562;SDS011;14217;50.986;5.826;2023-08-06T14:16:24;4.20;;;0.80;;
26562;SDS011;14217;50.986;5.826;2023-08-06T14:21:26;1.65;;;0.30;;
26562;SDS011;14217;50.986;5.826;2023-08-06T14:26:28;0.90;;;0.60;;
26562;SDS011;14217;50.986;5.826;2023-08-06T14:31:29;0.30;;;0.25;;
26562;SDS011;14217;50.986;5.826;2023-08-06T14:36:32;1.42;;;0.60;;
26562;SDS011;14217;50.986;5.826;2023-08-06T14:41:34;4.97;;;0.85;;
26562;SDS011;14217;50.986;5.826;2023-08-06T14:46:36;0.40;;;0.30;;
26562;SDS011;14217;50.986;5.826;2023-08-06T14:51:38;3.17;;;0.45;;
26562;SDS011;14217;50.986;5.826;2023-08-06T14:56:40;1.23;;;0.30;;
26562;SDS011;14217;50.986;5.826;2023-08-06T15:01:42;11.05;;;0.55;;
26562;SDS011;14217;50.986;5.826;2023-08-06T15:06:44;3.13;;;0.30;;
26562;SDS011;14217;50.986;5.826;2023-08-06T15:11:46;1.45;;;0.40;;
26562;SDS011;14217;50.986;5.826;2023-08-06T15:16:48;9.02;;;0.43;;
26562;SDS011;14217;50.986;5.826;2023-08-06T15:21:52;0.57;;;0.40;;
26562;SDS011;14217;50.986;5.826;2023-08-06T15:26:54;0.98;;;0.30;;
26562;SDS011;14217;50.986;5.826;2023-08-06T15:31:57;2.92;;;0.52;;
26562;SDS011;14217;50.986;5.826;2023-08-06T15:36:59;1.85;;;0.52;;
26562;SDS011;14217;50.986;5.826;2023-08-06T15:42:01;1.08;;;0.63;;
26562;SDS011;14217;50.986;5.826;2023-08-06T15:47:03;0.45;;;0.17;;
26562;SDS011;14217;50.986;5.826;2023-08-06T15:52:05;0.52;;;0.20;;
26562;SDS011;14217;50.986;5.826;2023-08-06T15:57:08;1.15;;;0.50;;
26562;SDS011;14217;50.986;5.826;2023-08-06T16:02:10;1.30;;;0.30;;
26562;SDS011;14217;50.986;5.826;2023-08-06T16:07:14;2.45;;;0.55;;
26562;SDS011;14217;50.986;5.826;2023-08-06T16:12:17;1.50;;;0.32;;
26562;SDS011;14217;50.986;5.826;2023-08-06T16:17:20;3.42;;;0.68;;
26562;SDS011;14217;50.986;5.826;2023-08-06T16:22:24;2.15;;;0.70;;
26562;SDS011;14217;50.986;5.826;2023-08-06T16:27:27;2.08;;;0.90;;
26562;SDS011;14217;50.986;5.826;2023-08-06T16:32:28;4.00;;;0.90;;
26562;SDS011;14217;50.986;5.826;2023-08-06T16:37:31;6.82;;;0.85;;
26562;SDS011;14217;50.986;5.826;2023-08-06T16:42:32;0.68;;;0.30;;
26562;SDS011;14217;50.986;5.826;2023-08-06T16:47:34;0.65;;;0.60;;
26562;SDS011;14217;50.986;5.826;2023-08-06T16:52:36;1.45;;;0.73;;
26562;SDS011;14217;50.986;5.826;2023-08-06T16:57:38;15.35;;;0.80;;
26562;SDS011;14217;50.986;5.826;2023-08-06T17:02:40;5.75;;;0.68;;
26562;SDS011;14217;50.986;5.826;2023-08-06T17:07:43;1.40;;;0.45;;
26562;SDS011;14217;50.986;5.826;2023-08-06T17:12:46;1.45;;;0.47;;
26562;SDS011;14217;50.986;5.826;2023-08-06T17:17:48;3.60;;;0.50;;
26562;SDS011;14217;50.986;5.826;2023-08-06T17:22:50;9.95;;;1.13;;
26562;SDS011;14217;50.986;5.826;2023-08-06T17:27:52;17.52;;;0.93;;
26562;SDS011;14217;50.986;5.826;2023-08-06T17:32:54;9.45;;;0.80;;
26562;SDS011;14217;50.986;5.826;2023-08-06T17:37:56;4.68;;;0.75;;
26562;SDS011;14217;50.986;5.826;2023-08-06T17:43:01;1.42;;;0.60;;
26562;SDS011;14217;50.986;5.826;2023-08-06T17:48:03;7.53;;;0.88;;
26562;SDS011;14217;50.986;5.826;2023-08-06T17:53:05;2.80;;;0.65;;
26562;SDS011;14217;50.986;5.826;2023-08-06T17:58:07;6.35;;;1.05;;
26562;SDS011;14217;50.986;5.826;2023-08-06T18:03:10;3.67;;;0.68;;
26562;SDS011;14217;50.986;5.826;2023-08-06T18:08:12;8.93;;;1.10;;
26562;SDS011;14217;50.986;5.826;2023-08-06T18:13:14;1.55;;;1.02;;
26562;SDS011;14217;50.986;5.826;2023-08-06T18:18:16;3.38;;;0.60;;
26562;SDS011;14217;50.986;5.826;2023-08-06T18:23:17;0.88;;;0.30;;
26562;SDS011;14217;50.986;5.826;2023-08-06T18:28:20;7.22;;;0.93;;
26562;SDS011;14217;50.986;5.826;2023-08-06T18:33:22;4.18;;;0.90;;
26562;SDS011;14217;50.986;5.826;2023-08-06T18:38:24;5.80;;;1.42;;
26562;SDS011;14217;50.986;5.826;2023-08-06T18:43:28;14.93;;;1.33;;
26562;SDS011;14217;50.986;5.826;2023-08-06T18:48:30;4.07;;;1.00;;
26562;SDS011;14217;50.986;5.826;2023-08-06T18:53:33;1.92;;;0.80;;
26562;SDS011;14217;50.986;5.826;2023-08-06T18:58:35;4.78;;;0.95;;
26562;SDS011;14217;50.986;5.826;2023-08-06T19:03:37;2.85;;;0.90;;
26562;SDS011;14217;50.986;5.826;2023-08-06T19:08:39;4.13;;;0.70;;
26562;SDS011;14217;50.986;5.826;2023-08-06T19:13:41;1.27;;;0.80;;
26562;SDS011;14217;50.986;5.826;2023-08-06T19:18:43;2.20;;;0.68;;
26562;SDS011;14217;50.986;5.826;2023-08-06T19:23:45;2.65;;;0.63;;
26562;SDS011;14217;50.986;5.826;2023-08-06T19:28:47;4.63;;;0.75;;
26562;SDS011;14217;50.986;5.826;2023-08-06T19:33:49;9.75;;;0.68;;
26562;SDS011;14217;50.986;5.826;2023-08-06T19:38:51;1.35;;;0.80;;
26562;SDS011;14217;50.986;5.826;2023-08-06T19:43:54;1.83;;;0.80;;
26562;SDS011;14217;50.986;5.826;2023-08-06T19:48:56;8.32;;;1.05;;
26562;SDS011;14217;50.986;5.826;2023-08-06T19:54:02;3.67;;;1.23;;
26562;SDS011;14217;50.986;5.826;2023-08-06T19:59:04;2.45;;;0.60;;
26562;SDS011;14217;50.986;5.826;2023-08-06T20:04:06;15.10;;;0.70;;
26562;SDS011;14217;50.986;5.826;2023-08-06T20:09:08;1.15;;;0.63;;
26562;SDS011;14217;50.986;5.826;2023-08-06T20:14:11;2.10;;;0.60;;
26562;SDS011;14217;50.986;5.826;2023-08-06T20:19:13;7.85;;;0.85;;
26562;SDS011;14217;50.986;5.826;2023-08-06T20:24:15;21.73;;;0.68;;
26562;SDS011;14217;50.986;5.826;2023-08-06T20:29:17;2.58;;;0.80;;
26562;SDS011;14217;50.986;5.826;2023-08-06T20:34:19;6.47;;;1.05;;
26562;SDS011;14217;50.986;5.826;2023-08-06T20:39:21;1.33;;;0.47;;
26562;SDS011;14217;50.986;5.826;2023-08-06T20:44:23;3.08;;;0.90;;
26562;SDS011;14217;50.986;5.826;2023-08-06T20:49:25;1.20;;;0.55;;
26562;SDS011;14217;50.986;5.826;2023-08-06T20:54:27;2.08;;;0.75;;
26562;SDS011;14217;50.986;5.826;2023-08-06T20:59:29;0.75;;;0.55;;
26562;SDS011;14217;50.986;5.826;2023-08-06T21:04:31;2.15;;;0.60;;
26562;SDS011;14217;50.986;5.826;2023-08-06T21:09:33;0.68;;;0.50;;
26562;SDS011;14217;50.986;5.826;2023-08-06T21:14:35;4.20;;;0.75;;
26562;SDS011;14217;50.986;5.826;2023-08-06T21:19:37;0.93;;;0.38;;
26562;SDS011;14217;50.986;5.826;2023-08-06T21:24:39;1.35;;;0.50;;
26562;SDS011;14217;50.986;5.826;2023-08-06T21:29:41;5.30;;;0.50;;
26562;SDS011;14217;50.986;5.826;2023-08-06T21:34:45;1.77;;;0.50;;
26562;SDS011;14217;50.986;5.826;2023-08-06T21:39:50;2.33;;;0.50;;
26562;SDS011;14217;50.986;5.826;2023-08-06T21:44:52;1.63;;;0.60;;
26562;SDS011;14217;50.986;5.826;2023-08-06T21:49:54;0.68;;;0.50;;
26562;SDS011;14217;50.986;5.826;2023-08-06T21:54:56;1.05;;;0.70;;
26562;SDS011;14217;50.986;5.826;2023-08-06T21:59:58;0.70;;;0.50;;
26562;SDS011;14217;50.986;5.826;2023-08-06T22:05:00;2.72;;;0.63;;
26562;SDS011;14217;50.986;5.826;2023-08-06T22:10:02;0.63;;;0.43;;
26562;SDS011;14217;50.986;5.826;2023-08-06T22:15:05;2.03;;;1.05;;
26562;SDS011;14217;50.986;5.826;2023-08-06T22:20:08;1.45;;;0.50;;
26562;SDS011;14217;50.986;5.826;2023-08-06T22:25:10;1.00;;;0.68;;
26562;SDS011;14217;50.986;5.826;2023-08-06T22:30:12;0.85;;;0.47;;
26562;SDS011;14217;50.986;5.826;2023-08-06T22:35:16;0.68;;;0.50;;
26562;SDS011;14217;50.986;5.826;2023-08-06T22:40:18;1.30;;;0.50;;
26562;SDS011;14217;50.986;5.826;2023-08-06T22:45:20;1.23;;;0.50;;
26562;SDS011;14217;50.986;5.826;2023-08-06T22:50:22;1.30;;;0.50;;
26562;SDS011;14217;50.986;5.826;2023-08-06T22:55:24;1.23;;;0.50;;
26562;SDS011;14217;50.986;5.826;2023-08-06T23:00:46;3.38;;;0.65;;
26562;SDS011;14217;50.986;5.826;2023-08-06T23:05:48;0.63;;;0.35;;
26562;SDS011;14217;50.986;5.826;2023-08-06T23:10:50;1.88;;;0.57;;
26562;SDS011;14217;50.986;5.826;2023-08-06T23:15:52;0.68;;;0.22;;
26562;SDS011;14217;50.986;5.826;2023-08-06T23:20:54;0.80;;;0.50;;
26562;SDS011;14217;50.986;5.826;2023-08-06T23:25:56;1.58;;;0.60;;
26562;SDS011;14217;50.986;5.826;2023-08-06T23:30:58;1.75;;;0.60;;
26562;SDS011;14217;50.986;5.826;2023-08-06T23:36:00;0.88;;;0.38;;
26562;SDS011;14217;50.986;5.826;2023-08-06T23:41:02;0.80;;;0.50;;
26562;SDS011;14217;50.986;5.826;2023-08-06T23:46:04;0.63;;;0.50;;
26562;SDS011;14217;50.986;5.826;2023-08-06T23:51:06;1.08;;;0.47;;
26562;SDS011;14217;50.986;5.826;2023-08-06T23:56:08;4.35;;;0.40;;
